Terminal Aerodrome Forecast
Issued by NWS

Home | Current Version | Previous Version | Text Only | Print | Product List | Glossary Off
Versions: 1 2 3 4 5 6 7 8 9 10 11 12 13 14 15 16 17 18 19 20 21 22 23 24 25

000
FTUS43 KABR 231406 AAA
TAFPIR
TAF AMD
KPIR 231406Z 2314/2412 12006KT P6SM VCSH OVC015
     FM231700 13011KT P6SM SCT022 BKN040 OVC100
     FM240100 09009KT 6SM BR VCSH BKN008 OVC050
     FM240400 08012KT 4SM -SHRA SCT009 BKN014 OVC035=

USA.gov is the U.S. government's official web portal to all federal, state and local government web resources and services.